Time;durP1;ratioP1;P1;durP2;ratioP2;P2;SDS_P1;SDS_P2;PMS_P1;PMS_P2;Temp;Humidity;BMP_temperature;BMP_pressure;BME280_temperature;BME280_humidity;BME280_pressure;Samples;Min_cycle;Max_cycle;Signal;HPM_P1;HPM_P2
2021/07/21 00:00:31;;;;;;;3.95;3.03;;;;;;;26.76;38.99;99952.06;4915898;29;20076;-82
2021/07/21 00:02:59;;;;;;;7.68;2.88;;;;;;;26.59;38.72;99960.31;4916552;29;20052;-81
2021/07/21 00:05:27;;;;;;;6.18;3.03;;;;;;;26.68;38.90;99954.84;4916086;29;20055;-85
2021/07/21 00:07:55;;;;;;;7.47;4.25;;;;;;;26.74;38.78;99949.59;4916433;29;20527;-84
2021/07/21 00:10:25;;;;;;;2.97;2.38;;;;;;;26.75;38.29;99950.41;4917486;29;20055;-85
2021/07/21 00:15:47;;;;;;;5.18;3.03;;;;;;;26.69;37.93;99961.88;4902987;29;20067;-84
2021/07/21 00:18:25;;;;;;;7.20;2.90;;;;;;;26.75;38.60;99963.78;4920170;29;20443;-83
2021/07/21 00:20:52;;;;;;;6.97;3.45;;;;;;;26.93;39.15;99958.84;4919667;29;20048;-83
2021/07/21 00:23:20;;;;;;;5.45;3.25;;;;;;;26.71;38.21;99957.16;4903193;29;20124;-83
2021/07/21 00:25:49;;;;;;;3.13;2.70;;;;;;;26.67;38.23;99954.00;4920073;29;20051;-81
2021/07/21 00:28:17;;;;;;;3.80;3.05;;;;;;;26.49;38.51;99954.44;4919585;29;20127;-81
2021/07/21 00:30:44;;;;;;;6.30;2.67;;;;;;;26.30;38.81;99954.97;4919996;29;20055;-81
2021/07/21 00:33:13;;;;;;;3.58;3.05;;;;;;;26.32;38.87;99947.59;4919109;29;20191;-82
2021/07/21 00:35:41;;;;;;;7.55;3.45;;;;;;;26.27;38.78;99947.34;4919680;29;20048;-82
2021/07/21 00:38:08;;;;;;;7.22;3.95;;;;;;;26.29;38.76;99955.97;4928829;29;20047;-83
2021/07/21 00:40:36;;;;;;;5.20;2.33;;;;;;;26.45;38.75;99955.81;4902369;29;20047;-82
2021/07/21 00:43:03;;;;;;;6.97;3.22;;;;;;;26.52;38.47;99951.38;4919349;29;20440;-82
2021/07/21 00:45:31;;;;;;;3.20;2.60;;;;;;;26.38;40.71;99965.56;4919158;29;20040;-82
2021/07/21 00:47:58;;;;;;;5.07;3.05;;;;;;;26.24;42.18;99961.06;4919178;29;20048;-81
2021/07/21 00:50:26;;;;;;;4.90;3.50;;;;;;;26.13;42.31;99965.00;4919485;29;20072;-81
2021/07/21 00:52:53;;;;;;;4.32;3.35;;;;;;;25.84;42.46;99963.16;4902181;29;20044;-82
2021/07/21 00:55:25;;;;;;;4.15;3.40;;;;;;;25.68;42.95;99963.28;4919370;29;20416;-82
2021/07/21 00:57:56;;;;;;;5.60;3.33;;;;;;;25.33;44.18;99963.75;4902337;29;20140;-83
2021/07/21 01:00:25;;;;;;;4.85;3.17;;;;;;;25.43;44.09;99958.16;4902575;29;20048;-81
2021/07/21 01:02:53;;;;;;;6.97;2.75;;;;;;;25.55;44.26;99970.06;4910835;29;20055;-80
2021/07/21 01:05:27;;;;;;;5.07;3.13;;;;;;;25.52;44.31;99973.09;4901816;29;20054;-81
2021/07/21 01:07:58;;;;;;;7.03;3.55;;;;;;;25.29;44.87;99969.59;4902321;29;20055;-81
2021/07/21 01:10:27;;;;;;;4.68;2.85;;;;;;;25.58;44.96;99980.38;4901625;29;20388;-81
2021/07/21 01:13:15;;;;;;;4.47;3.50;;;;;;;25.11;45.81;99971.75;4954831;23;20077;-80
2021/07/21 01:15:52;;;;;;;5.05;3.92;;;;;;;24.89;46.74;99974.19;4958440;28;20119;-80
2021/07/21 01:18:35;;;;;;;7.80;4.63;;;;;;;25.39;46.99;99980.03;4958922;28;20062;-80
2021/07/21 01:21:15;;;;;;;6.68;4.50;;;;;;;25.03;48.15;99973.41;4974741;28;20505;-80
2021/07/21 01:23:48;;;;;;;7.68;4.43;;;;;;;24.77;48.21;99989.75;4958470;28;20039;-80
2021/07/21 01:26:27;;;;;;;5.53;4.53;;;;;;;24.69;48.99;99978.28;4976199;28;20050;-81
2021/07/21 01:28:58;;;;;;;10.63;3.90;;;;;;;24.56;49.46;99978.88;4958670;28;20039;-81
2021/07/21 01:31:34;;;;;;;8.27;3.90;;;;;;;24.43;48.52;99983.91;4975664;28;20078;-80
2021/07/21 01:34:02;;;;;;;4.00;3.40;;;;;;;24.38;48.71;99976.44;4975927;28;20051;-80
2021/07/21 01:36:36;;;;;;;7.70;4.15;;;;;;;24.37;49.23;99974.78;4975723;28;20138;-81
2021/07/21 01:39:07;;;;;;;6.47;4.20;;;;;;;24.36;49.42;99972.28;4975961;28;20049;-81
2021/07/21 01:41:41;;;;;;;5.25;3.38;;;;;;;24.36;48.63;99975.78;4956293;29;20313;-81
2021/07/21 01:44:17;;;;;;;4.75;4.05;;;;;;;24.08;49.47;99974.50;4939221;29;20055;-81
2021/07/21 01:46:51;;;;;;;10.30;4.82;;;;;;;24.18;49.99;99985.78;4939050;29;20384;-81
2021/07/21 01:49:21;;;;;;;9.85;7.25;;;;;;;24.28;51.87;99981.91;4939059;29;20047;-81
2021/07/21 01:51:48;;;;;;;7.85;5.43;;;;;;;24.22;50.59;99973.78;4939162;29;20047;-82
2021/07/21 01:54:19;;;;;;;7.00;4.70;;;;;;;24.18;50.27;99975.13;4955887;29;20067;-81
2021/07/21 01:57:08;;;;;;;4.72;4.10;;;;;;;23.79;50.69;99975.88;4956099;29;20506;-81
2021/07/21 01:59:44;;;;;;;4.72;3.25;;;;;;;23.50;51.05;99976.38;4938658;29;20451;-80
2021/07/21 02:02:22;;;;;;;4.65;4.18;;;;;;;23.58;51.65;99980.84;4956329;29;20051;-81
2021/07/21 02:05:05;;;;;;;5.05;4.18;;;;;;;23.69;50.92;99985.88;4955698;29;20047;-80
2021/07/21 02:07:35;;;;;;;4.22;3.83;;;;;;;23.64;51.03;99983.72;4955039;29;20071;-80
2021/07/21 02:10:05;;;;;;;8.40;4.28;;;;;;;23.49;51.75;99978.22;4954166;29;20101;-81
2021/07/21 02:12:56;;;;;;;5.10;4.60;;;;;;;23.40;51.63;99979.19;4954948;28;20100;-80
2021/07/21 02:15:25;;;;;;;9.10;4.53;;;;;;;23.29;52.25;99986.69;4938362;29;20055;-79
2021/07/21 02:17:53;;;;;;;8.05;4.38;;;;;;;23.34;52.48;99985.19;4955731;29;20450;-80
2021/07/21 02:20:25;;;;;;;5.90;4.30;;;;;;;23.43;51.61;99975.38;4938233;29;20130;-79
2021/07/21 02:22:56;;;;;;;6.88;5.30;;;;;;;23.21;52.58;99982.16;4938432;29;20077;-80
2021/07/21 02:25:47;;;;;;;5.30;4.22;;;;;;;23.10;52.56;99974.50;4955020;29;20131;-79
2021/07/21 02:28:21;;;;;;;6.05;4.10;;;;;;;22.99;53.12;99980.97;4938228;29;20134;-80
2021/07/21 02:30:56;;;;;;;8.82;3.90;;;;;;;23.00;52.67;99991.44;4923226;29;20077;-79
2021/07/21 02:33:43;;;;;;;7.57;5.85;;;;;;;23.11;52.87;99992.94;4955581;28;20122;-79
2021/07/21 02:36:14;;;;;;;6.65;4.57;;;;;;;23.27;51.97;99989.47;4937879;29;20130;-79
2021/07/21 02:38:42;;;;;;;5.50;4.13;;;;;;;22.97;53.04;99997.09;4955582;29;20074;-79
2021/07/21 02:41:09;;;;;;;5.25;4.22;;;;;;;22.77;53.31;99995.66;4938216;29;20043;-79
2021/07/21 02:43:38;;;;;;;4.82;3.42;;;;;;;22.84;52.96;99999.34;4937921;29;20051;-80
2021/07/21 02:46:07;;;;;;;4.47;3.38;;;;;;;22.71;53.02;100005.13;4937970;29;20525;-79
2021/07/21 02:48:34;;;;;;;4.95;3.55;;;;;;;22.83;52.96;100003.00;4955027;29;20045;-79
2021/07/21 02:51:10;;;;;;;5.32;4.07;;;;;;;22.85;52.65;100001.03;4938060;29;20043;-79
2021/07/21 02:53:52;;;;;;;6.32;4.35;;;;;;;22.70;52.67;100005.28;4954778;29;20055;-79
2021/07/21 02:56:50;;;;;;;3.42;3.03;;;;;;;22.61;52.80;100011.56;4953022;29;20058;-80
2021/07/21 02:59:23;;;;;;;6.47;3.57;;;;;;;22.17;53.95;100017.00;4954751;29;20043;-79
2021/07/21 03:01:52;;;;;;;6.68;2.75;;;;;;;22.31;53.61;100010.25;4937624;29;20050;-78
2021/07/21 03:04:38;;;;;;;3.58;3.28;;;;;;;22.18;53.95;100008.03;4953438;29;20047;-78
2021/07/21 03:07:21;;;;;;;5.80;3.60;;;;;;;22.25;53.99;100011.72;4937808;29;20047;-79
2021/07/21 03:09:52;;;;;;;6.68;3.33;;;;;;;22.20;55.01;100020.13;4953405;29;20082;-78
2021/07/21 03:12:21;;;;;;;6.60;4.03;;;;;;;22.37;53.98;100015.78;4954528;28;20051;-79
2021/07/21 03:15:29;;;;;;;5.80;3.63;;;;;;;22.29;54.02;100017.53;4937361;29;20047;-79
2021/07/21 03:18:00;;;;;;;8.57;3.45;;;;;;;22.19;53.96;100012.34;4937727;29;20047;-80
2021/07/21 03:20:29;;;;;;;79.13;26.42;;;;;;;22.22;53.82;100006.72;4953137;29;20039;-80
2021/07/21 03:23:08;;;;;;;13.43;6.47;;;;;;;22.44;52.98;100008.84;4955135;29;20126;-80
2021/07/21 03:25:39;;;;;;;6.88;3.90;;;;;;;22.59;52.92;100018.88;4964062;28;20474;-80
2021/07/21 03:28:08;;;;;;;3.63;3.33;;;;;;;22.37;52.86;100013.13;4968813;28;20126;-80
2021/07/21 03:30:49;;;;;;;5.03;3.53;;;;;;;22.34;52.75;100015.25;4956014;28;20647;-80
2021/07/21 03:33:19;;;;;;;8.77;4.35;;;;;;;22.14;54.00;100020.78;4955987;28;20057;-80
2021/07/21 03:35:54;;;;;;;4.65;3.08;;;;;;;22.43;53.24;100023.09;4955580;28;20065;-80
2021/07/21 03:38:42;;;;;;;6.63;3.58;;;;;;;22.29;53.21;100026.34;4955948;28;20139;-81
2021/07/21 03:41:20;;;;;;;7.05;3.90;;;;;;;22.19;53.57;100022.97;4970073;28;20051;-79
2021/07/21 03:43:48;;;;;;;4.57;3.00;;;;;;;22.31;53.50;100026.19;4956128;28;20401;-80
2021/07/21 03:46:20;;;;;;;4.57;3.42;;;;;;;22.40;52.67;100026.06;4959019;28;20371;-79
2021/07/21 03:48:48;;;;;;;6.90;3.78;;;;;;;22.69;52.17;100023.06;4977119;28;20035;-80
2021/07/21 03:51:37;;;;;;;4.97;2.97;;;;;;;22.84;51.31;100017.94;4959998;28;20035;-80
2021/07/21 03:54:25;;;;;;;4.68;3.33;;;;;;;22.88;51.15;100024.63;4973658;28;20050;-80
2021/07/21 03:57:07;;;;;;;7.18;4.00;;;;;;;22.79;51.50;100025.56;4943566;28;20093;-79
2021/07/21 03:59:40;;;;;;;3.30;2.67;;;;;;;22.85;50.88;100027.59;4959451;28;20117;-79
2021/07/21 04:02:09;;;;;;;3.47;2.90;;;;;;;22.85;50.52;100026.75;4977342;28;20049;-79
2021/07/21 04:04:44;;;;;;;6.05;4.15;;;;;;;23.07;49.91;100028.03;4959390;28;20162;-79
2021/07/21 04:07:15;;;;;;;7.45;3.85;;;;;;;23.06;50.29;100024.50;4960215;28;20050;-79
2021/07/21 04:09:52;;;;;;;7.90;2.92;;;;;;;23.21;49.06;100027.38;4959856;28;20046;-79
2021/07/21 04:12:22;;;;;;;8.00;3.30;;;;;;;23.34;48.55;100030.41;4959541;28;20062;-80
2021/07/21 04:14:56;;;;;;;3.47;2.75;;;;;;;23.36;48.60;100041.69;4959705;28;20043;-79
2021/07/21 04:17:52;;;;;;;7.35;3.42;;;;;;;23.37;48.69;100043.34;4973482;28;20063;-79
2021/07/21 04:20:25;;;;;;;9.30;3.17;;;;;;;23.52;48.11;100038.22;4940273;29;20589;-78
2021/07/21 04:22:54;;;;;;;3.50;2.90;;;;;;;23.58;47.79;100047.38;4940560;29;20086;-78
2021/07/21 04:25:22;;;;;;;5.30;3.72;;;;;;;23.72;47.25;100052.06;4970841;28;20126;-79
2021/07/21 04:27:58;;;;;;;4.90;3.53;;;;;;;23.65;48.12;100059.03;4959904;28;20043;-79
2021/07/21 04:30:31;;;;;;;6.30;3.50;;;;;;;23.67;48.11;100057.06;4976798;28;20049;-79
2021/07/21 04:33:00;;;;;;;7.78;3.45;;;;;;;23.69;48.29;100055.06;4959584;28;20122;-80
2021/07/21 04:35:32;;;;;;;10.68;3.90;;;;;;;23.84;47.73;100066.72;4976856;28;20051;-77
2021/07/21 04:38:04;;;;;;;8.25;3.60;;;;;;;24.19;47.61;100068.19;4959754;28;20078;-80
2021/07/21 04:40:55;;;;;;;4.55;3.53;;;;;;;24.39;47.79;100058.00;4938272;28;20150;-79
2021/07/21 04:43:42;;;;;;;4.90;2.92;;;;;;;24.08;48.42;100071.19;4977154;28;20057;-79
2021/07/21 04:46:20;;;;;;;11.18;4.18;;;;;;;24.46;48.18;100069.66;4958832;28;20046;-80
2021/07/21 04:48:48;;;;;;;10.48;6.18;;;;;;;24.43;47.95;100069.16;4976722;28;20137;-79
2021/07/21 04:51:22;;;;;;;3.65;3.28;;;;;;;24.77;47.37;100069.72;4958852;28;20157;-81
2021/07/21 04:54:04;;;;;;;7.13;3.83;;;;;;;24.58;48.08;100074.63;4954534;28;20520;-79
2021/07/21 04:56:36;;;;;;;11.27;6.22;;;;;;;25.09;48.17;100075.94;4957560;28;20050;-77
2021/07/21 04:59:04;;;;;;;11.05;6.07;;;;;;;25.47;47.28;100073.38;4958056;28;20499;-79
2021/07/21 05:01:34;;;;;;;11.38;4.82;;;;;;;25.35;46.93;100078.28;4958839;28;20043;-76
2021/07/21 05:04:03;;;;;;;7.70;5.32;;;;;;;24.98;48.10;100079.81;4958147;28;20070;-77
2021/07/21 05:07:05;;;;;;;8.55;5.10;;;;;;;25.06;48.72;100086.97;4961393;28;20082;-78
2021/07/21 05:09:44;;;;;;;6.20;4.38;;;;;;;24.60;50.01;100085.94;4958837;28;20410;-80
2021/07/21 05:12:12;;;;;;;7.18;4.15;;;;;;;24.71;49.94;100088.22;4975493;28;20142;-78
2021/07/21 05:14:48;;;;;;;8.68;4.35;;;;;;;25.32;48.16;100086.66;4957966;28;20038;-78
2021/07/21 05:17:33;;;;;;;5.55;5.00;;;;;;;25.53;47.86;100080.69;4976445;28;20047;-79
2021/07/21 05:20:06;;;;;;;9.15;4.53;;;;;;;25.25;48.87;100091.88;4958462;28;20192;-78
2021/07/21 05:22:45;;;;;;;12.70;4.45;;;;;;;25.42;48.12;100092.59;4958161;28;20497;-78
2021/07/21 05:25:14;;;;;;;8.03;3.83;;;;;;;25.31;48.84;100088.50;4975036;28;20163;-77
2021/07/21 05:27:58;;;;;;;11.10;4.22;;;;;;;25.74;47.96;100096.06;4949355;28;20313;-79
2021/07/21 05:30:25;;;;;;;10.52;4.05;;;;;;;26.02;47.41;100097.16;4975335;28;20093;-78
2021/07/21 05:33:04;;;;;;;9.18;4.75;;;;;;;26.33;45.83;100097.06;4975841;28;20122;-80
2021/07/21 05:35:34;;;;;;;7.35;4.18;;;;;;;26.58;45.15;100100.34;4957702;28;20387;-78
2021/07/21 05:38:10;;;;;;;10.95;4.05;;;;;;;26.23;46.19;100103.66;4975613;28;20053;-79
2021/07/21 05:40:38;;;;;;;10.27;4.53;;;;;;;26.34;46.01;100103.22;4975336;28;20054;-79
2021/07/21 05:43:12;;;;;;;;;;;;;;;26.32;45.76;100099.91;4958568;28;20073;-80
2021/07/21 05:45:48;;;;;;;12.93;4.43;;;;;;;26.68;45.44;100108.06;4957640;28;19950;-80
2021/07/21 05:48:18;;;;;;;6.93;4.38;;;;;;;26.97;44.60;100109.91;4953426;28;20038;-78
2021/07/21 05:51:17;;;;;;;11.43;5.13;;;;;;;26.66;44.75;100114.63;4960727;28;20508;-77
2021/07/21 05:53:46;;;;;;;11.68;4.47;;;;;;;26.97;44.62;100120.59;4956834;28;20058;-78
2021/07/21 05:56:15;;;;;;;8.25;5.25;;;;;;;27.30;44.88;100120.22;4973466;28;20034;-76
2021/07/21 05:58:48;;;;;;;12.38;7.65;;;;;;;27.04;46.16;100132.22;4950917;28;20051;-76
2021/07/21 06:01:17;;;;;;;13.90;6.80;;;;;;;27.19;45.76;100123.38;4950571;28;20565;-76
2021/07/21 06:03:44;;;;;;;17.67;7.72;;;;;;;27.05;46.13;100127.69;4973443;28;20043;-78
2021/07/21 06:06:30;;;;;;;13.73;9.63;;;;;;;27.30;45.21;100130.91;4974434;28;20133;-75
2021/07/21 06:09:00;;;;;;;13.45;9.93;;;;;;;27.36;45.22;100130.97;4973030;28;20074;-74
2021/07/21 06:11:36;;;;;;;12.70;10.90;;;;;;;27.06;45.46;100143.56;4956658;28;20049;-77
2021/07/21 06:14:03;;;;;;;16.35;11.75;;;;;;;26.94;45.58;100141.53;4973458;28;20046;-78
2021/07/21 06:16:34;;;;;;;15.45;9.05;;;;;;;27.23;45.39;100140.72;4956510;28;20070;-74
2021/07/21 06:19:03;;;;;;;19.65;10.18;;;;;;;27.03;45.33;100146.59;4951788;28;20118;-75
2021/07/21 06:21:31;;;;;;;11.80;9.65;;;;;;;26.84;45.96;100152.50;4955287;28;20046;-79
2021/07/21 06:24:37;;;;;;;15.50;10.60;;;;;;;27.47;44.13;100142.22;4949759;28;20043;-78
2021/07/21 06:27:12;;;;;;;21.10;7.85;;;;;;;27.57;44.02;100148.94;4954215;28;20046;-78
2021/07/21 06:29:46;;;;;;;33.90;8.50;;;;;;;27.56;44.10;100158.00;4954280;28;20065;-77
2021/07/21 06:32:13;;;;;;;11.82;6.53;;;;;;;27.07;45.04;100155.97;4953765;28;20047;-81
2021/07/21 06:34:41;;;;;;;12.15;5.85;;;;;;;27.45;43.90;100160.34;4972712;28;20066;-79
2021/07/21 06:37:14;;;;;;;16.00;7.75;;;;;;;27.35;43.21;100160.63;4972379;28;20394;-81
2021/07/21 06:39:41;;;;;;;12.43;7.65;;;;;;;27.46;43.73;100161.97;4956183;28;20387;-84
2021/07/21 06:42:11;;;;;;;12.20;8.15;;;;;;;27.62;43.34;100161.75;4972720;28;20050;-81
2021/07/21 06:44:48;;;;;;;13.07;8.80;;;;;;;27.52;43.77;100164.72;4951551;28;20101;-80
2021/07/21 06:47:20;;;;;;;14.90;7.68;;;;;;;27.46;43.99;100168.16;4971645;28;20494;-81
2021/07/21 06:49:54;;;;;;;14.75;8.32;;;;;;;27.13;44.83;100171.28;4953876;28;20050;-81
2021/07/21 06:52:23;;;;;;;18.63;7.53;;;;;;;26.73;45.90;100177.84;4971719;28;20445;-80
2021/07/21 06:54:52;;;;;;;10.38;5.28;;;;;;;27.16;44.93;100170.06;4971707;28;20063;-79
2021/07/21 06:57:42;;;;;;;10.05;5.18;;;;;;;27.49;44.42;100188.41;4963184;28;20058;-81
2021/07/21 07:00:47;;;;;;;12.48;4.68;;;;;;;27.17;44.33;100184.28;4946366;28;20057;-81
2021/07/21 07:03:20;;;;;;;8.18;4.47;;;;;;;27.37;44.09;100188.03;4973009;28;20129;-80
2021/07/21 07:06:26;;;;;;;12.50;4.82;;;;;;;27.10;44.88;100182.31;4913305;29;20141;-79
2021/07/21 07:09:28;;;;;;;10.10;5.10;;;;;;;26.88;45.02;100176.03;4875288;29;20052;-82
2021/07/21 07:12:18;;;;;;;9.95;4.70;;;;;;;27.11;45.58;100181.34;4954291;28;20517;-79
2021/07/21 07:14:45;;;;;;;8.20;4.40;;;;;;;27.36;45.77;100178.34;4972282;28;20066;-80
2021/07/21 07:17:12;;;;;;;12.30;5.13;;;;;;;27.23;45.91;100188.88;4972982;28;20062;-79
2021/07/21 07:19:39;;;;;;;8.15;5.43;;;;;;;27.42;46.14;100185.63;4971707;28;20038;-80
2021/07/21 07:22:06;;;;;;;12.07;5.70;;;;;;;27.62;45.61;100184.00;4973047;28;20070;-76
2021/07/21 07:24:33;;;;;;;15.20;5.88;;;;;;;27.52;45.50;100183.47;4971864;28;20506;-79
2021/07/21 07:27:01;;;;;;;12.80;5.82;;;;;;;27.42;44.73;100185.63;4972134;28;20057;-80
2021/07/21 07:29:28;;;;;;;6.57;5.03;;;;;;;26.89;45.53;100196.41;4973687;28;20406;-81
2021/07/21 07:31:55;;;;;;;13.88;4.82;;;;;;;27.18;44.94;100192.13;4972044;28;20101;-78
2021/07/21 07:34:22;;;;;;;11.93;5.60;;;;;;;27.29;44.63;100186.28;4972975;28;20035;-81
2021/07/21 07:36:49;;;;;;;5.20;4.03;;;;;;;27.29;45.08;100188.13;4972318;28;20058;-79
2021/07/21 07:39:17;;;;;;;14.68;5.45;;;;;;;27.26;45.13;100188.50;4973082;28;20054;-82
2021/07/21 07:41:44;;;;;;;12.23;5.95;;;;;;;27.37;44.91;100188.03;4948938;28;20537;-81
2021/07/21 07:44:11;;;;;;;7.22;4.82;;;;;;;27.04;45.85;100187.56;4972836;28;20138;-81
2021/07/21 07:46:38;;;;;;;7.90;5.38;;;;;;;27.31;45.76;100191.44;4972639;28;20047;-80
2021/07/21 07:49:06;;;;;;;8.23;6.22;;;;;;;27.22;45.67;100197.91;4972565;28;20047;-81
2021/07/21 07:51:34;;;;;;;10.38;5.85;;;;;;;27.20;44.59;100190.06;4972975;28;20078;-79
2021/07/21 07:54:02;;;;;;;12.57;6.55;;;;;;;27.18;45.20;100196.63;4972220;28;20122;-81
2021/07/21 07:56:30;;;;;;;8.90;6.15;;;;;;;27.28;44.25;100197.19;4952615;28;20046;-79
2021/07/21 07:58:57;;;;;;;14.65;8.68;;;;;;;27.21;46.95;100193.56;4954948;28;20398;-75
2021/07/21 08:01:25;;;;;;;15.23;7.38;;;;;;;27.43;45.88;100189.94;4972082;28;20074;-78
2021/07/21 08:03:52;;;;;;;16.75;8.07;;;;;;;27.36;45.87;100189.03;4972426;28;20134;-75
2021/07/21 08:06:19;;;;;;;11.32;7.65;;;;;;;27.43;45.11;100192.63;4972813;28;20122;-76
2021/07/21 08:08:46;;;;;;;16.80;8.00;;;;;;;27.08;45.80;100192.41;4971733;28;20043;-76
2021/07/21 08:11:13;;;;;;;10.25;8.02;;;;;;;27.24;46.32;100195.91;4971566;28;20053;-76
2021/07/21 08:13:40;;;;;;;10.05;9.02;;;;;;;27.38;47.30;100200.41;4966304;28;20901;-76
2021/07/21 08:16:08;;;;;;;8.68;7.78;;;;;;;27.23;46.39;100199.59;4965114;28;20067;-76
2021/07/21 08:18:36;;;;;;;9.40;7.43;;;;;;;27.38;46.58;100200.41;4972662;28;20482;-75
2021/07/21 08:21:03;;;;;;;10.85;8.18;;;;;;;27.18;46.91;100204.66;4972571;28;20051;-77
2021/07/21 08:23:32;;;;;;;10.25;8.32;;;;;;;27.49;46.93;100197.25;4955081;28;20046;-80
2021/07/21 08:25:59;;;;;;;11.48;8.77;;;;;;;27.51;46.73;100200.56;4964570;28;20110;-78
2021/07/21 08:28:27;;;;;;;15.57;6.97;;;;;;;27.53;46.09;100190.47;4954966;28;20074;-79
2021/07/21 08:30:54;;;;;;;18.80;9.60;;;;;;;27.35;46.39;100196.25;4972652;28;20502;-78
2021/07/21 08:33:21;;;;;;;10.23;7.47;;;;;;;27.49;46.19;100193.75;4975611;28;20047;-77
2021/07/21 08:35:48;;;;;;;12.52;8.80;;;;;;;27.41;46.79;100192.81;4976022;28;20054;-76
2021/07/21 08:38:15;;;;;;;14.65;7.93;;;;;;;27.71;46.19;100194.66;4975117;28;20126;-76
2021/07/21 08:40:42;;;;;;;11.55;8.25;;;;;;;27.35;46.66;100201.59;4975610;28;20058;-77
2021/07/21 08:43:28;;;;;;;11.60;7.32;;;;;;;27.44;46.13;100196.16;4958544;28;20093;-76
2021/07/21 08:45:57;;;;;;;13.00;8.60;;;;;;;27.41;46.92;100200.84;4976059;28;20042;-76
2021/07/21 08:48:24;;;;;;;10.73;8.38;;;;;;;27.13;47.01;100192.66;4974983;28;20046;-77
2021/07/21 08:50:52;;;;;;;13.73;7.80;;;;;;;27.50;45.51;100196.22;4975030;28;20045;-77
2021/07/21 08:53:19;;;;;;;9.90;8.65;;;;;;;27.22;45.64;100201.44;4974686;28;20498;-77
2021/07/21 08:55:51;;;;;;;14.05;7.72;;;;;;;27.40;45.55;100196.50;4974687;28;20042;-76
2021/07/21 08:58:20;;;;;;;12.50;8.25;;;;;;;27.42;46.34;100205.19;4974751;28;20046;-77
2021/07/21 09:00:52;;;;;;;11.25;8.00;;;;;;;27.46;45.78;100194.94;4957451;28;20089;-79
2021/07/21 09:03:21;;;;;;;15.85;8.80;;;;;;;27.33;46.51;100198.28;4975023;28;20478;-76
2021/07/21 09:05:53;;;;;;;13.50;8.50;;;;;;;27.41;46.58;100192.00;4957851;28;20073;-78
2021/07/21 09:08:20;;;;;;;15.70;7.05;;;;;;;27.75;44.97;100195.91;4975622;28;20042;-76
2021/07/21 09:10:49;;;;;;;16.45;6.70;;;;;;;27.73;44.23;100200.63;4974193;28;20438;-77
2021/07/21 09:13:16;;;;;;;9.65;5.95;;;;;;;27.82;42.95;100200.31;4974200;28;20054;-77
2021/07/21 09:15:48;;;;;;;10.25;6.47;;;;;;;27.99;42.31;100192.03;4974655;28;20081;-76
2021/07/21 09:18:17;;;;;;;9.05;7.63;;;;;;;27.71;45.02;100197.31;4974839;28;20437;-79
2021/07/21 09:21:08;;;;;;;12.13;6.68;;;;;;;27.81;43.11;100195.16;4974415;28;20039;-79
2021/07/21 09:23:42;;;;;;;6.50;5.90;;;;;;;27.83;40.77;100195.78;4968627;28;20034;-79
2021/07/21 09:26:12;;;;;;;13.68;8.10;;;;;;;28.11;43.54;100196.69;4957322;28;20387;-77
2021/07/21 09:28:42;;;;;;;16.02;8.38;;;;;;;27.92;44.72;100194.66;4957106;28;20045;-78
2021/07/21 09:31:15;;;;;;;11.95;7.15;;;;;;;27.94;44.00;100187.25;4975044;28;20494;-78
2021/07/21 09:33:44;;;;;;;14.98;6.75;;;;;;;28.16;42.41;100185.41;4974588;28;20046;-78
2021/07/21 09:36:19;;;;;;;7.65;4.88;;;;;;;28.25;40.85;100189.63;4974840;28;20047;-78
2021/07/21 09:38:47;;;;;;;11.73;6.00;;;;;;;28.18;41.13;100192.25;4974259;28;20391;-78
2021/07/21 09:41:16;;;;;;;11.88;7.97;;;;;;;28.33;42.94;100194.84;4974474;28;20050;-80
2021/07/21 09:43:44;;;;;;;10.07;6.93;;;;;;;28.10;44.39;100195.03;4973268;28;20043;-79
2021/07/21 09:46:14;;;;;;;11.20;7.50;;;;;;;28.32;43.79;100197.69;4974906;28;20047;-78
2021/07/21 09:48:45;;;;;;;12.55;7.43;;;;;;;28.20;44.22;100184.00;4972743;28;20105;-79
2021/07/21 09:51:28;;;;;;;12.63;6.88;;;;;;;28.50;43.25;100191.88;4974355;28;20051;-80
2021/07/21 09:53:55;;;;;;;8.43;6.50;;;;;;;28.37;42.90;100182.72;4973440;28;20392;-81
2021/07/21 09:56:30;;;;;;;8.45;5.55;;;;;;;28.60;42.83;100190.53;4954099;28;20445;-81
2021/07/21 09:59:24;;;;;;;7.30;5.68;;;;;;;28.78;41.89;100184.69;4973258;28;20046;-80
2021/07/21 10:01:53;;;;;;;10.75;6.95;;;;;;;28.70;43.21;100187.50;4973604;28;20424;-78
2021/07/21 10:04:36;;;;;;;7.32;6.53;;;;;;;28.65;42.20;100185.41;4973920;28;20050;-79
2021/07/21 10:07:19;;;;;;;10.32;6.97;;;;;;;28.62;42.77;100175.09;4956905;28;20070;-81
2021/07/21 10:09:47;;;;;;;16.33;5.75;;;;;;;28.80;41.06;100176.44;4974406;28;20042;-81
2021/07/21 10:12:18;;;;;;;8.52;5.28;;;;;;;28.77;40.47;100172.31;4973599;28;20058;-80
2021/07/21 10:14:59;;;;;;;11.15;5.05;;;;;;;28.98;40.31;100168.75;4973539;28;20043;-83
2021/07/21 10:17:27;;;;;;;12.15;5.50;;;;;;;28.64;40.20;100170.34;4973776;28;20047;-80
2021/07/21 10:19:55;;;;;;;13.82;6.10;;;;;;;28.88;40.75;100170.91;4974117;28;20078;-82
2021/07/21 10:22:23;;;;;;;5.72;5.07;;;;;;;29.05;40.45;100169.59;4973573;28;20038;-80
2021/07/21 10:24:51;;;;;;;7.72;5.90;;;;;;;29.03;41.19;100168.13;4973936;28;20074;-80
2021/07/21 10:27:20;;;;;;;11.68;7.03;;;;;;;28.94;40.91;100170.97;4973362;28;20513;-78
2021/07/21 10:29:49;;;;;;;5.85;5.18;;;;;;;28.84;40.29;100165.13;4973473;28;20499;-78
2021/07/21 10:32:16;;;;;;;9.73;5.65;;;;;;;29.07;40.45;100170.22;4972360;28;20050;-79
2021/07/21 10:34:45;;;;;;;10.05;6.13;;;;;;;29.11;40.58;100168.78;4974043;28;20046;-78
2021/07/21 10:37:12;;;;;;;11.85;5.95;;;;;;;29.05;40.77;100172.28;4973999;28;20042;-77
2021/07/21 10:39:39;;;;;;;7.18;6.25;;;;;;;28.96;40.38;100162.72;4973231;28;20513;-77
2021/07/21 10:42:10;;;;;;;11.30;6.65;;;;;;;28.98;42.09;100166.06;4973031;28;20129;-80
2021/07/21 10:44:38;;;;;;;11.20;6.70;;;;;;;29.19;42.43;100171.31;4972570;28;20416;-80
2021/07/21 10:47:31;;;;;;;8.48;6.50;;;;;;;28.94;41.96;100159.41;4973701;28;20050;-79
2021/07/21 10:50:08;;;;;;;13.20;6.43;;;;;;;29.03;41.35;100160.94;4969252;28;20493;-79
2021/07/21 11:00:31;;;;;;;9.73;6.40;;;;;;;29.42;41.14;100159.44;4969231;28;20046;-75
2021/07/21 11:03:25;;;;;;;11.25;6.07;;;;;;;29.31;41.32;100151.97;4972870;28;20133;-80
2021/07/21 11:06:05;;;;;;;9.43;6.28;;;;;;;29.50;41.12;100143.13;4966598;28;20043;-77
2021/07/21 11:08:44;;;;;;;9.90;6.00;;;;;;;29.61;41.05;100142.56;4969809;28;20065;-75
2021/07/21 11:11:19;;;;;;;8.68;6.20;;;;;;;29.45;40.59;100138.34;4969183;28;20039;-78
2021/07/21 11:13:56;;;;;;;16.73;5.65;;;;;;;29.78;40.28;100139.50;4968976;28;20065;-79
2021/07/21 11:16:50;;;;;;;6.15;5.50;;;;;;;29.36;41.08;100136.91;4952265;28;20514;-78
2021/07/21 11:19:40;;;;;;;10.63;6.72;;;;;;;29.84;41.27;100130.63;4953826;28;20454;-77
2021/07/21 11:22:24;;;;;;;8.00;7.13;;;;;;;29.57;41.53;100132.44;4953508;28;20052;-76
2021/07/21 11:25:03;;;;;;;9.00;5.70;;;;;;;29.94;42.45;100120.31;4970773;28;20057;-81
2021/07/21 11:28:03;;;;;;;7.35;5.90;;;;;;;29.88;40.58;100127.34;4970403;28;20129;-79
2021/07/21 11:30:39;;;;;;;8.27;6.22;;;;;;;30.16;39.42;100118.28;4971037;28;20043;-80
2021/07/21 11:33:42;;;;;;;21.92;7.10;;;;;;;29.95;39.36;100119.28;4970896;28;20071;-79
2021/07/21 11:36:43;;;;;;;11.85;5.45;;;;;;;30.25;37.64;100117.00;4970955;28;20101;-79
2021/07/21 11:39:32;;;;;;;12.27;6.18;;;;;;;30.44;37.75;100116.16;4970552;28;20042;-80
2021/07/21 11:42:00;;;;;;;11.73;5.63;;;;;;;30.35;37.53;100116.59;4967324;28;20043;-80
2021/07/21 11:44:35;;;;;;;8.57;5.25;;;;;;;30.44;38.07;100110.78;4964098;28;20066;-81
2021/07/21 11:47:14;;;;;;;9.45;6.15;;;;;;;30.17;39.66;100106.47;4971211;28;20046;-80
2021/07/21 11:49:49;;;;;;;10.75;5.72;;;;;;;30.39;39.56;100101.69;4964406;28;20049;-79
2021/07/21 11:52:19;;;;;;;7.78;6.32;;;;;;;30.64;38.43;100101.84;4970390;28;20130;-81
2021/07/21 11:54:46;;;;;;;8.80;5.35;;;;;;;30.25;40.74;100096.31;4948155;28;20540;-81
2021/07/21 11:57:14;;;;;;;8.00;5.85;;;;;;;30.34;39.81;100098.81;4970829;28;20405;-88
2021/07/21 11:59:43;;;;;;;8.18;7.28;;;;;;;30.14;40.36;100088.88;4971664;28;20058;-81
2021/07/21 12:02:16;;;;;;;13.07;6.80;;;;;;;30.26;39.71;100092.63;4970780;28;20760;-83
2021/07/21 12:04:49;;;;;;;14.00;7.23;;;;;;;30.39;40.22;100097.13;4971453;28;20117;-79